WetterOnline ( https://www.wetteronline.de )

Wetter aktuell Vallauris

Aktuelles Wetter: Nizza (27m)

6-stündlich | Neueste Meldungen
Ortszeit Temperatur Wetter
Mi, 19.02. 7:00 8.4° C fast wolkenlos
Mi, 19.02. 1:00 9.2° C wolkenlos
Di, 18.02. 19:00 13.8° C wolkenlos
Di, 18.02. 13:00 15.5° C fast wolkenlos
Di, 18.02. 7:00 9.7° C wolkig
Di, 18.02. 1:00 11.0° C leicht bewölkt
Mo, 17.02. 19:00 13.7° C bewölkt
Mo, 17.02. 13:00 14.9° C bewölkt
Ortszeit Temperatur Wetter
Mi, 19.02. 12:30 14° C leicht bewölkt
Mi, 19.02. 12:00 14.4° C fast wolkenlos
Mi, 19.02. 11:30 14° C leicht bewölkt
Mi, 19.02. 11:00 13.7° C fast wolkenlos
Mi, 19.02. 10:30 13° C leicht bewölkt
Mi, 19.02. 10:00 12.7° C fast wolkenlos
Mi, 19.02. 9:30 11° C leicht bewölkt
Mi, 19.02. 9:00 10.3° C fast wolkenlos
Ortszeit Relative Feuchte Sichtweite
Mi, 19.02. 7:00 61% 50 km
Mi, 19.02. 1:00 67% 40 km
Di, 18.02. 19:00 80% 40 km
Di, 18.02. 13:00 70% 50 km
Di, 18.02. 7:00 84% 30 km
Di, 18.02. 1:00 90% 20 km
Mo, 17.02. 19:00 89% 20 km
Mo, 17.02. 13:00 75% 30 km
Ortszeit Relative Feuchte Sichtweite
Mi, 19.02. 12:30 63% >10 km
Mi, 19.02. 12:00 58% 50 km
Mi, 19.02. 11:30 51% >10 km
Mi, 19.02. 11:00 56% 50 km
Mi, 19.02. 10:30 54% >10 km
Mi, 19.02. 10:00 45% 50 km
Mi, 19.02. 9:30 50% >10 km
Mi, 19.02. 9:00 52% 50 km
Ortszeit Niederschlagsmenge Niederschlagsart
Mi, 19.02. 7:00 0.0 l/m2 in 12 Std. -
Mi, 19.02. 1:00 0.0 l/m2 in 6 Std. -
Di, 18.02. 19:00 0.0 l/m2 in 12 Std. -
Di, 18.02. 13:00 0.0 l/m2 in 6 Std. -
Di, 18.02. 7:00 0.0 l/m2 in 12 Std. -
Di, 18.02. 1:00 0.0 l/m2 in 6 Std. -
Mo, 17.02. 19:00 0.1 l/m2 in 12 Std. -
Mo, 17.02. 13:00 0.1 l/m2 in 6 Std. Regen
Ortszeit Niederschlagsmenge Niederschlagsart
Mi, 19.02. 12:30 keine Meldung -
Mi, 19.02. 12:00 0.0 l/m2 in 1 Std. -
Mi, 19.02. 11:30 keine Meldung -
Mi, 19.02. 11:00 0.0 l/m2 in 1 Std. -
Mi, 19.02. 10:30 keine Meldung -
Mi, 19.02. 10:00 keine Meldung -
Mi, 19.02. 9:30 keine Meldung -
Mi, 19.02. 9:00 0.0 l/m2 in 1 Std. -
Ortszeit Stärke Spitze Richtung
km/h Bft. km/h Grad Sektor
Mi, 19.02. 7:00 19 3 31 340° N
Mi, 19.02. 1:00 11 2 17 330° NW
Di, 18.02. 19:00 13 3 19 80° O
Di, 18.02. 13:00 19 3 22 200° S
Di, 18.02. 7:00 13 3 22 330° NW
Di, 18.02. 1:00 4 1 11 340° N
Mo, 17.02. 19:00 28 4 37 220° SW
Mo, 17.02. 13:00 24 4 31 220° SW
Ortszeit Stärke Spitze Richtung
km/h Bft. km/h Grad Sektor
Mi, 19.02. 12:30 9 2 - 120° SO
Mi, 19.02. 12:00 7 2 11 140° SO
Mi, 19.02. 11:30 7 2 - 180° S
Mi, 19.02. 11:00 6 1 9 100° O
Mi, 19.02. 10:30 4 1 - uml. uml.
Mi, 19.02. 10:00 9 2 24 10° N
Mi, 19.02. 9:30 15 3 - 310° NW
Mi, 19.02. 9:00 15 3 19 330° NW
Ortszeit Untergrenze Bedeckung Gattung
total tief tief mittel hoch
Mi, 19.02. 7:00 4500 m 1/8 1/8 - Ac -
Mi, 19.02. 1:00 - 0/8 0/8 - - -
Di, 18.02. 19:00 - 0/8 0/8 - - -
Di, 18.02. 13:00 1200 m 1/8 1/8 Sc - Ci
Di, 18.02. 7:00 480 m 7/8 1/8 Sc - Ci
Di, 18.02. 1:00 6900 m 5/8 0/8 - - Ci
Mo, 17.02. 19:00 300 m 7/8 7/8 Sc - -
Mo, 17.02. 13:00 840 m 7/8 7/8 Sc - -
Ortszeit Bedeckungsgrad in Achtel und Wolkenuntergrenze
Mi, 19.02. 12:30 1-2(450m)
Mi, 19.02. 12:00 1(450m)
Mi, 19.02. 11:30 1-2(450m)
Mi, 19.02. 11:00 1(450m)
Mi, 19.02. 10:30 1-2(450m)
Mi, 19.02. 10:00 1(480m)
Mi, 19.02. 9:30 1-2(480m)
Mi, 19.02. 9:00 1(480m)
Ortszeit Luftdruck NN (hPa) Tendenz (hPa in 3 Std.)
Mi, 19.02. 7:00 1021 - 0,6
Mi, 19.02. 1:00 1024 - 0,7
Di, 18.02. 19:00 1024 + 0,7
Di, 18.02. 13:00 1024 - 0,2
Di, 18.02. 7:00 1022 + 1,5
Di, 18.02. 1:00 1021 - 1,5
Mo, 17.02. 19:00 1023 - 0,1
Mo, 17.02. 13:00 1026 - 1,4
Ortszeit Luftdruck NN (hPa) Tendenz (hPa in 3 Std.)
Mi, 19.02. 12:30 1022 keine Meldung
Mi, 19.02. 12:00 1023 + 0,4
Mi, 19.02. 11:30 1022 keine Meldung
Mi, 19.02. 11:00 1023 + 1,2
Mi, 19.02. 10:30 1022 keine Meldung
Mi, 19.02. 10:00 1023 + 1,2
Mi, 19.02. 9:30 1022 keine Meldung
Mi, 19.02. 9:00 1022 + 0,8
Ortszeit Schneehöhe (cm)
Mi, 19.02. 7:00 -
Mi, 19.02. 1:00 -
Di, 18.02. 19:00 -
Di, 18.02. 13:00 -
Di, 18.02. 7:00 -
Di, 18.02. 1:00 -
Mo, 17.02. 19:00 -
Mo, 17.02. 13:00 -
Ortszeit Schneehöhe (cm)
Mi, 19.02. 12:30 -
Mi, 19.02. 12:00 -
Mi, 19.02. 11:30 -
Mi, 19.02. 11:00 -
Mi, 19.02. 10:30 -
Mi, 19.02. 10:00 -
Mi, 19.02. 9:30 -
Mi, 19.02. 9:00 -
Link zu dieser Seite / Seite empfehlen

Das Wetter in ...